sensor_id;sensor_type;location;lat;lon;timestamp;P1;durP1;ratioP1;P2;durP2;ratioP2
11893;SDS011;6006;49.696;8.662;2023-03-12T00:01:39;4.83;;;2.10;;
11893;SDS011;6006;49.696;8.662;2023-03-12T00:04:06;2.73;;;1.80;;
11893;SDS011;6006;49.696;8.662;2023-03-12T00:06:33;3.27;;;2.20;;
11893;SDS011;6006;49.696;8.662;2023-03-12T00:09:01;2.60;;;2.07;;
11893;SDS011;6006;49.696;8.662;2023-03-12T00:11:28;3.10;;;1.90;;
11893;SDS011;6006;49.696;8.662;2023-03-12T00:13:56;1.70;;;1.60;;
11893;SDS011;6006;49.696;8.662;2023-03-12T00:16:24;1.90;;;1.67;;
11893;SDS011;6006;49.696;8.662;2023-03-12T00:18:52;3.17;;;2.00;;
11893;SDS011;6006;49.696;8.662;2023-03-12T00:21:19;2.43;;;2.23;;
11893;SDS011;6006;49.696;8.662;2023-03-12T00:23:47;4.83;;;2.60;;
11893;SDS011;6006;49.696;8.662;2023-03-12T00:26:15;4.57;;;2.63;;
11893;SDS011;6006;49.696;8.662;2023-03-12T00:28:43;4.17;;;3.00;;
11893;SDS011;6006;49.696;8.662;2023-03-12T00:31:13;3.00;;;2.50;;
11893;SDS011;6006;49.696;8.662;2023-03-12T00:33:41;3.20;;;2.60;;
11893;SDS011;6006;49.696;8.662;2023-03-12T00:36:08;2.73;;;2.50;;
11893;SDS011;6006;49.696;8.662;2023-03-12T00:38:35;2.90;;;2.03;;
11893;SDS011;6006;49.696;8.662;2023-03-12T00:41:02;2.77;;;1.90;;
11893;SDS011;6006;49.696;8.662;2023-03-12T00:43:30;1.50;;;1.40;;
11893;SDS011;6006;49.696;8.662;2023-03-12T00:45:57;2.57;;;1.60;;
11893;SDS011;6006;49.696;8.662;2023-03-12T00:48:24;3.57;;;2.20;;
11893;SDS011;6006;49.696;8.662;2023-03-12T00:50:51;3.33;;;2.10;;
11893;SDS011;6006;49.696;8.662;2023-03-12T00:53:18;2.93;;;2.43;;
11893;SDS011;6006;49.696;8.662;2023-03-12T00:55:44;2.87;;;2.10;;
11893;SDS011;6006;49.696;8.662;2023-03-12T00:58:12;2.73;;;1.93;;
11893;SDS011;6006;49.696;8.662;2023-03-12T01:00:40;2.70;;;1.70;;
11893;SDS011;6006;49.696;8.662;2023-03-12T01:03:07;4.77;;;2.13;;
11893;SDS011;6006;49.696;8.662;2023-03-12T01:05:33;2.20;;;1.40;;
11893;SDS011;6006;49.696;8.662;2023-03-12T01:08:02;2.23;;;1.47;;
11893;SDS011;6006;49.696;8.662;2023-03-12T01:10:29;1.40;;;1.23;;
11893;SDS011;6006;49.696;8.662;2023-03-12T01:12:56;2.10;;;1.30;;
11893;SDS011;6006;49.696;8.662;2023-03-12T01:15:23;1.70;;;1.57;;
11893;SDS011;6006;49.696;8.662;2023-03-12T01:17:52;2.93;;;1.60;;
11893;SDS011;6006;49.696;8.662;2023-03-12T01:20:19;1.30;;;1.20;;
11893;SDS011;6006;49.696;8.662;2023-03-12T01:22:47;2.60;;;2.07;;
11893;SDS011;6006;49.696;8.662;2023-03-12T01:25:13;2.57;;;1.63;;
11893;SDS011;6006;49.696;8.662;2023-03-12T01:27:40;3.40;;;1.57;;
11893;SDS011;6006;49.696;8.662;2023-03-12T01:30:08;2.30;;;1.77;;
11893;SDS011;6006;49.696;8.662;2023-03-12T01:32:36;2.30;;;1.60;;
11893;SDS011;6006;49.696;8.662;2023-03-12T01:35:05;2.03;;;1.23;;
11893;SDS011;6006;49.696;8.662;2023-03-12T01:37:32;1.50;;;1.40;;
11893;SDS011;6006;49.696;8.662;2023-03-12T01:39:59;1.60;;;1.50;;
11893;SDS011;6006;49.696;8.662;2023-03-12T01:42:26;1.77;;;1.10;;
11893;SDS011;6006;49.696;8.662;2023-03-12T01:44:54;1.83;;;1.30;;
11893;SDS011;6006;49.696;8.662;2023-03-12T01:47:22;1.93;;;0.93;;
11893;SDS011;6006;49.696;8.662;2023-03-12T01:49:50;2.97;;;1.10;;
11893;SDS011;6006;49.696;8.662;2023-03-12T01:52:21;1.97;;;1.13;;
11893;SDS011;6006;49.696;8.662;2023-03-12T01:54:52;1.57;;;0.90;;
11893;SDS011;6006;49.696;8.662;2023-03-12T01:57:22;1.23;;;1.13;;
11893;SDS011;6006;49.696;8.662;2023-03-12T01:59:53;2.10;;;1.60;;
11893;SDS011;6006;49.696;8.662;2023-03-12T02:02:24;3.43;;;1.77;;
11893;SDS011;6006;49.696;8.662;2023-03-12T02:04:55;5.20;;;2.30;;
11893;SDS011;6006;49.696;8.662;2023-03-12T02:07:33;3.20;;;2.07;;
11893;SDS011;6006;49.696;8.662;2023-03-12T02:10:00;1.87;;;1.70;;
11893;SDS011;6006;49.696;8.662;2023-03-12T02:12:28;2.83;;;1.90;;
11893;SDS011;6006;49.696;8.662;2023-03-12T02:14:55;2.50;;;2.13;;
11893;SDS011;6006;49.696;8.662;2023-03-12T02:17:22;2.33;;;2.00;;
11893;SDS011;6006;49.696;8.662;2023-03-12T02:19:50;3.67;;;2.30;;
11893;SDS011;6006;49.696;8.662;2023-03-12T02:22:25;2.10;;;1.90;;
11893;SDS011;6006;49.696;8.662;2023-03-12T02:24:55;2.73;;;1.90;;
11893;SDS011;6006;49.696;8.662;2023-03-12T02:27:29;2.33;;;2.03;;
11893;SDS011;6006;49.696;8.662;2023-03-12T02:29:57;2.90;;;1.90;;
11893;SDS011;6006;49.696;8.662;2023-03-12T02:32:26;3.73;;;1.83;;
11893;SDS011;6006;49.696;8.662;2023-03-12T02:34:58;3.47;;;1.80;;
11893;SDS011;6006;49.696;8.662;2023-03-12T02:37:26;1.80;;;1.60;;
11893;SDS011;6006;49.696;8.662;2023-03-12T02:39:54;1.33;;;1.20;;
11893;SDS011;6006;49.696;8.662;2023-03-12T02:42:31;2.27;;;1.10;;
11893;SDS011;6006;49.696;8.662;2023-03-12T02:44:59;1.53;;;1.30;;
11893;SDS011;6006;49.696;8.662;2023-03-12T02:47:26;2.73;;;1.60;;
11893;SDS011;6006;49.696;8.662;2023-03-12T02:49:53;1.63;;;1.40;;
11893;SDS011;6006;49.696;8.662;2023-03-12T02:52:20;2.00;;;1.60;;
11893;SDS011;6006;49.696;8.662;2023-03-12T02:54:47;2.40;;;1.30;;
11893;SDS011;6006;49.696;8.662;2023-03-12T02:57:14;1.77;;;1.40;;
11893;SDS011;6006;49.696;8.662;2023-03-12T02:59:43;2.07;;;1.50;;
11893;SDS011;6006;49.696;8.662;2023-03-12T03:02:10;1.40;;;1.30;;
11893;SDS011;6006;49.696;8.662;2023-03-12T03:04:37;2.17;;;1.30;;
11893;SDS011;6006;49.696;8.662;2023-03-12T03:07:04;1.30;;;1.20;;
11893;SDS011;6006;49.696;8.662;2023-03-12T03:09:32;1.67;;;0.97;;
11893;SDS011;6006;49.696;8.662;2023-03-12T03:11:59;1.43;;;0.70;;
11893;SDS011;6006;49.696;8.662;2023-03-12T03:14:26;0.63;;;0.63;;
11893;SDS011;6006;49.696;8.662;2023-03-12T03:16:54;2.43;;;0.70;;
11893;SDS011;6006;49.696;8.662;2023-03-12T03:19:21;1.20;;;0.80;;
11893;SDS011;6006;49.696;8.662;2023-03-12T03:21:48;1.20;;;0.80;;
11893;SDS011;6006;49.696;8.662;2023-03-12T03:24:15;1.70;;;1.20;;
11893;SDS011;6006;49.696;8.662;2023-03-12T03:26:42;3.67;;;1.40;;
11893;SDS011;6006;49.696;8.662;2023-03-12T03:29:09;1.77;;;1.20;;
11893;SDS011;6006;49.696;8.662;2023-03-12T03:31:35;2.13;;;1.03;;
11893;SDS011;6006;49.696;8.662;2023-03-12T03:34:04;2.40;;;1.10;;
11893;SDS011;6006;49.696;8.662;2023-03-12T03:36:30;2.27;;;1.50;;
11893;SDS011;6006;49.696;8.662;2023-03-12T03:38:57;1.93;;;1.43;;
11893;SDS011;6006;49.696;8.662;2023-03-12T03:41:24;1.47;;;1.23;;
11893;SDS011;6006;49.696;8.662;2023-03-12T03:43:54;1.77;;;1.10;;
11893;SDS011;6006;49.696;8.662;2023-03-12T03:46:21;2.57;;;1.20;;
11893;SDS011;6006;49.696;8.662;2023-03-12T03:48:48;3.10;;;1.00;;
11893;SDS011;6006;49.696;8.662;2023-03-12T03:51:17;2.70;;;0.80;;
11893;SDS011;6006;49.696;8.662;2023-03-12T03:53:44;0.83;;;0.83;;
11893;SDS011;6006;49.696;8.662;2023-03-12T03:56:11;1.23;;;1.10;;
11893;SDS011;6006;49.696;8.662;2023-03-12T03:58:39;2.50;;;1.10;;
11893;SDS011;6006;49.696;8.662;2023-03-12T04:01:06;2.03;;;1.00;;
11893;SDS011;6006;49.696;8.662;2023-03-12T04:03:34;2.50;;;1.10;;
11893;SDS011;6006;49.696;8.662;2023-03-12T04:06:02;0.70;;;0.70;;
11893;SDS011;6006;49.696;8.662;2023-03-12T04:08:32;1.70;;;1.10;;
11893;SDS011;6006;49.696;8.662;2023-03-12T04:11:05;1.43;;;1.10;;
11893;SDS011;6006;49.696;8.662;2023-03-12T04:13:32;1.00;;;0.73;;
11893;SDS011;6006;49.696;8.662;2023-03-12T04:16:00;1.77;;;1.13;;
11893;SDS011;6006;49.696;8.662;2023-03-12T04:18:26;1.00;;;0.90;;
11893;SDS011;6006;49.696;8.662;2023-03-12T04:20:53;1.13;;;1.00;;
11893;SDS011;6006;49.696;8.662;2023-03-12T04:23:20;0.83;;;0.63;;
11893;SDS011;6006;49.696;8.662;2023-03-12T04:25:48;0.77;;;0.63;;
11893;SDS011;6006;49.696;8.662;2023-03-12T04:28:15;0.73;;;0.73;;
11893;SDS011;6006;49.696;8.662;2023-03-12T04:30:42;1.37;;;0.80;;
11893;SDS011;6006;49.696;8.662;2023-03-12T04:33:09;1.07;;;0.80;;
11893;SDS011;6006;49.696;8.662;2023-03-12T04:35:36;1.70;;;0.70;;
11893;SDS011;6006;49.696;8.662;2023-03-12T04:38:03;2.10;;;1.03;;
11893;SDS011;6006;49.696;8.662;2023-03-12T04:40:29;0.97;;;0.97;;
11893;SDS011;6006;49.696;8.662;2023-03-12T04:42:58;2.97;;;0.87;;
11893;SDS011;6006;49.696;8.662;2023-03-12T04:45:24;2.00;;;0.80;;
11893;SDS011;6006;49.696;8.662;2023-03-12T04:47:51;0.77;;;0.70;;
11893;SDS011;6006;49.696;8.662;2023-03-12T04:50:18;1.10;;;0.73;;
11893;SDS011;6006;49.696;8.662;2023-03-12T04:52:45;0.80;;;0.80;;
11893;SDS011;6006;49.696;8.662;2023-03-12T04:55:12;1.10;;;1.10;;
11893;SDS011;6006;49.696;8.662;2023-03-12T04:57:39;1.10;;;0.90;;
11893;SDS011;6006;49.696;8.662;2023-03-12T05:00:08;2.27;;;1.40;;
11893;SDS011;6006;49.696;8.662;2023-03-12T05:02:37;4.63;;;1.30;;
11893;SDS011;6006;49.696;8.662;2023-03-12T05:05:04;1.93;;;1.60;;
11893;SDS011;6006;49.696;8.662;2023-03-12T05:07:32;3.20;;;1.60;;
11893;SDS011;6006;49.696;8.662;2023-03-12T05:09:59;1.60;;;1.23;;
11893;SDS011;6006;49.696;8.662;2023-03-12T05:12:26;1.37;;;1.27;;
11893;SDS011;6006;49.696;8.662;2023-03-12T05:14:53;1.47;;;1.10;;
11893;SDS011;6006;49.696;8.662;2023-03-12T05:17:21;2.10;;;1.20;;
11893;SDS011;6006;49.696;8.662;2023-03-12T05:19:48;1.17;;;1.07;;
11893;SDS011;6006;49.696;8.662;2023-03-12T05:22:14;2.10;;;1.30;;
11893;SDS011;6006;49.696;8.662;2023-03-12T05:24:42;1.93;;;1.30;;
11893;SDS011;6006;49.696;8.662;2023-03-12T05:27:09;3.00;;;1.73;;
11893;SDS011;6006;49.696;8.662;2023-03-12T05:29:35;3.63;;;1.30;;
11893;SDS011;6006;49.696;8.662;2023-03-12T05:32:02;2.43;;;1.20;;
11893;SDS011;6006;49.696;8.662;2023-03-12T05:34:33;2.90;;;1.60;;
11893;SDS011;6006;49.696;8.662;2023-03-12T05:36:59;2.93;;;1.53;;
11893;SDS011;6006;49.696;8.662;2023-03-12T05:39:26;2.23;;;1.27;;
11893;SDS011;6006;49.696;8.662;2023-03-12T05:41:53;1.53;;;1.43;;
11893;SDS011;6006;49.696;8.662;2023-03-12T05:44:21;1.67;;;1.33;;
11893;SDS011;6006;49.696;8.662;2023-03-12T05:46:48;1.83;;;1.57;;
11893;SDS011;6006;49.696;8.662;2023-03-12T05:49:15;1.53;;;1.40;;
11893;SDS011;6006;49.696;8.662;2023-03-12T05:51:43;1.93;;;1.37;;
11893;SDS011;6006;49.696;8.662;2023-03-12T05:54:11;2.57;;;1.73;;
11893;SDS011;6006;49.696;8.662;2023-03-12T05:56:38;2.37;;;1.30;;
11893;SDS011;6006;49.696;8.662;2023-03-12T05:59:05;3.93;;;1.50;;
11893;SDS011;6006;49.696;8.662;2023-03-12T06:01:34;3.90;;;1.80;;
11893;SDS011;6006;49.696;8.662;2023-03-12T06:04:02;2.07;;;1.87;;
11893;SDS011;6006;49.696;8.662;2023-03-12T06:06:29;2.93;;;1.77;;
11893;SDS011;6006;49.696;8.662;2023-03-12T06:08:58;3.23;;;1.93;;
11893;SDS011;6006;49.696;8.662;2023-03-12T06:11:25;3.33;;;1.93;;
11893;SDS011;6006;49.696;8.662;2023-03-12T06:13:52;5.97;;;2.03;;
11893;SDS011;6006;49.696;8.662;2023-03-12T06:16:19;3.80;;;1.70;;
11893;SDS011;6006;49.696;8.662;2023-03-12T06:18:47;3.90;;;1.80;;
11893;SDS011;6006;49.696;8.662;2023-03-12T06:21:18;2.93;;;1.80;;
11893;SDS011;6006;49.696;8.662;2023-03-12T06:23:46;2.43;;;1.60;;
11893;SDS011;6006;49.696;8.662;2023-03-12T06:26:16;3.67;;;1.67;;
11893;SDS011;6006;49.696;8.662;2023-03-12T06:28:43;2.30;;;1.57;;
11893;SDS011;6006;49.696;8.662;2023-03-12T06:31:10;2.40;;;1.60;;
11893;SDS011;6006;49.696;8.662;2023-03-12T06:33:37;2.83;;;1.50;;
11893;SDS011;6006;49.696;8.662;2023-03-12T06:36:05;2.77;;;1.37;;
11893;SDS011;6006;49.696;8.662;2023-03-12T06:38:33;1.30;;;1.20;;
11893;SDS011;6006;49.696;8.662;2023-03-12T06:41:00;2.33;;;1.40;;
11893;SDS011;6006;49.696;8.662;2023-03-12T06:43:30;1.63;;;1.53;;
11893;SDS011;6006;49.696;8.662;2023-03-12T06:45:59;1.90;;;1.53;;
11893;SDS011;6006;49.696;8.662;2023-03-12T06:48:27;2.90;;;1.60;;
11893;SDS011;6006;49.696;8.662;2023-03-12T06:50:57;2.30;;;1.80;;
11893;SDS011;6006;49.696;8.662;2023-03-12T06:53:24;2.50;;;1.90;;
11893;SDS011;6006;49.696;8.662;2023-03-12T06:55:51;3.43;;;1.90;;
11893;SDS011;6006;49.696;8.662;2023-03-12T06:58:18;2.03;;;1.57;;
11893;SDS011;6006;49.696;8.662;2023-03-12T07:00:46;2.47;;;1.40;;
11893;SDS011;6006;49.696;8.662;2023-03-12T07:03:13;1.67;;;1.53;;
11893;SDS011;6006;49.696;8.662;2023-03-12T07:05:42;6.07;;;2.90;;
11893;SDS011;6006;49.696;8.662;2023-03-12T07:08:09;3.20;;;2.07;;
11893;SDS011;6006;49.696;8.662;2023-03-12T07:10:37;3.43;;;1.80;;
11893;SDS011;6006;49.696;8.662;2023-03-12T07:13:03;2.47;;;2.03;;
11893;SDS011;6006;49.696;8.662;2023-03-12T07:15:31;2.23;;;1.80;;
11893;SDS011;6006;49.696;8.662;2023-03-12T07:17:59;3.50;;;2.30;;
11893;SDS011;6006;49.696;8.662;2023-03-12T07:20:26;2.17;;;1.90;;
11893;SDS011;6006;49.696;8.662;2023-03-12T07:22:53;2.93;;;2.00;;
11893;SDS011;6006;49.696;8.662;2023-03-12T07:25:20;2.77;;;2.20;;
11893;SDS011;6006;49.696;8.662;2023-03-12T07:27:47;5.37;;;2.53;;
11893;SDS011;6006;49.696;8.662;2023-03-12T07:30:14;2.17;;;1.97;;
11893;SDS011;6006;49.696;8.662;2023-03-12T07:32:41;2.40;;;2.20;;
11893;SDS011;6006;49.696;8.662;2023-03-12T07:35:09;2.90;;;2.57;;
11893;SDS011;6006;49.696;8.662;2023-03-12T07:37:36;5.20;;;2.80;;
11893;SDS011;6006;49.696;8.662;2023-03-12T07:40:04;2.80;;;2.60;;
11893;SDS011;6006;49.696;8.662;2023-03-12T07:42:32;3.37;;;3.07;;
11893;SDS011;6006;49.696;8.662;2023-03-12T07:44:59;6.10;;;2.97;;
11893;SDS011;6006;49.696;8.662;2023-03-12T07:47:28;4.43;;;2.87;;
11893;SDS011;6006;49.696;8.662;2023-03-12T07:49:55;4.03;;;3.03;;
11893;SDS011;6006;49.696;8.662;2023-03-12T07:52:23;3.57;;;3.10;;
11893;SDS011;6006;49.696;8.662;2023-03-12T07:54:50;5.40;;;3.10;;
11893;SDS011;6006;49.696;8.662;2023-03-12T07:57:18;3.27;;;3.03;;
11893;SDS011;6006;49.696;8.662;2023-03-12T07:59:45;4.00;;;3.27;;
11893;SDS011;6006;49.696;8.662;2023-03-12T08:02:12;4.60;;;2.87;;
11893;SDS011;6006;49.696;8.662;2023-03-12T08:04:39;4.40;;;3.53;;
11893;SDS011;6006;49.696;8.662;2023-03-12T08:07:06;3.40;;;3.20;;
11893;SDS011;6006;49.696;8.662;2023-03-12T08:09:34;5.23;;;4.53;;
11893;SDS011;6006;49.696;8.662;2023-03-12T08:12:02;7.57;;;4.40;;
11893;SDS011;6006;49.696;8.662;2023-03-12T08:14:29;5.57;;;4.83;;
11893;SDS011;6006;49.696;8.662;2023-03-12T08:16:56;4.30;;;3.90;;
11893;SDS011;6006;49.696;8.662;2023-03-12T08:19:23;4.77;;;4.33;;
11893;SDS011;6006;49.696;8.662;2023-03-12T08:21:50;7.93;;;6.53;;
11893;SDS011;6006;49.696;8.662;2023-03-12T08:24:19;8.87;;;6.73;;
11893;SDS011;6006;49.696;8.662;2023-03-12T08:26:48;7.63;;;5.37;;
11893;SDS011;6006;49.696;8.662;2023-03-12T08:29:15;12.63;;;7.00;;
11893;SDS011;6006;49.696;8.662;2023-03-12T08:31:42;8.33;;;5.60;;
11893;SDS011;6006;49.696;8.662;2023-03-12T08:34:09;7.30;;;5.67;;
11893;SDS011;6006;49.696;8.662;2023-03-12T08:36:36;7.10;;;6.40;;
11893;SDS011;6006;49.696;8.662;2023-03-12T08:39:03;7.97;;;7.07;;
11893;SDS011;6006;49.696;8.662;2023-03-12T08:41:30;11.37;;;6.57;;
11893;SDS011;6006;49.696;8.662;2023-03-12T08:43:59;8.70;;;7.23;;
11893;SDS011;6006;49.696;8.662;2023-03-12T08:46:26;9.33;;;7.60;;
11893;SDS011;6006;49.696;8.662;2023-03-12T08:48:53;10.90;;;7.93;;
11893;SDS011;6006;49.696;8.662;2023-03-12T08:51:20;13.10;;;8.80;;
11893;SDS011;6006;49.696;8.662;2023-03-12T08:53:47;9.13;;;8.17;;
11893;SDS011;6006;49.696;8.662;2023-03-12T08:56:14;14.17;;;7.70;;
11893;SDS011;6006;49.696;8.662;2023-03-12T08:58:41;8.73;;;7.80;;
11893;SDS011;6006;49.696;8.662;2023-03-12T09:01:09;15.33;;;10.27;;
11893;SDS011;6006;49.696;8.662;2023-03-12T09:03:37;11.50;;;8.93;;
11893;SDS011;6006;49.696;8.662;2023-03-12T09:06:05;14.17;;;9.10;;
11893;SDS011;6006;49.696;8.662;2023-03-12T09:08:37;34.47;;;26.67;;
11893;SDS011;6006;49.696;8.662;2023-03-12T09:11:04;9.90;;;8.30;;
11893;SDS011;6006;49.696;8.662;2023-03-12T09:13:31;8.30;;;7.50;;
11893;SDS011;6006;49.696;8.662;2023-03-12T09:15:59;8.90;;;6.93;;
11893;SDS011;6006;49.696;8.662;2023-03-12T09:18:27;9.40;;;6.70;;
11893;SDS011;6006;49.696;8.662;2023-03-12T09:20:55;11.23;;;7.23;;
11893;SDS011;6006;49.696;8.662;2023-03-12T09:23:22;7.43;;;6.47;;
11893;SDS011;6006;49.696;8.662;2023-03-12T09:25:49;8.73;;;7.43;;
11893;SDS011;6006;49.696;8.662;2023-03-12T09:28:16;10.20;;;8.17;;
11893;SDS011;6006;49.696;8.662;2023-03-12T09:30:44;8.93;;;8.03;;
11893;SDS011;6006;49.696;8.662;2023-03-12T09:33:11;12.43;;;9.57;;
11893;SDS011;6006;49.696;8.662;2023-03-12T09:35:40;8.37;;;6.40;;
11893;SDS011;6006;49.696;8.662;2023-03-12T09:38:08;8.77;;;5.90;;
11893;SDS011;6006;49.696;8.662;2023-03-12T09:40:38;9.17;;;6.00;;
11893;SDS011;6006;49.696;8.662;2023-03-12T09:43:10;25.77;;;15.63;;
11893;SDS011;6006;49.696;8.662;2023-03-12T09:45:44;7.67;;;6.57;;
11893;SDS011;6006;49.696;8.662;2023-03-12T09:48:13;9.07;;;6.40;;
11893;SDS011;6006;49.696;8.662;2023-03-12T09:50:44;7.47;;;6.40;;
11893;SDS011;6006;49.696;8.662;2023-03-12T09:53:14;10.10;;;7.17;;
11893;SDS011;6006;49.696;8.662;2023-03-12T09:55:51;9.23;;;6.50;;
11893;SDS011;6006;49.696;8.662;2023-03-12T09:58:21;7.40;;;5.90;;
11893;SDS011;6006;49.696;8.662;2023-03-12T10:00:52;6.93;;;6.23;;
11893;SDS011;6006;49.696;8.662;2023-03-12T10:03:38;8.80;;;6.60;;
11893;SDS011;6006;49.696;8.662;2023-03-12T10:06:19;8.30;;;6.20;;
11893;SDS011;6006;49.696;8.662;2023-03-12T10:08:52;7.00;;;6.07;;
11893;SDS011;6006;49.696;8.662;2023-03-12T10:11:31;7.53;;;5.77;;
11893;SDS011;6006;49.696;8.662;2023-03-12T10:14:11;7.40;;;6.43;;
11893;SDS011;6006;49.696;8.662;2023-03-12T10:16:50;7.00;;;6.03;;
11893;SDS011;6006;49.696;8.662;2023-03-12T10:19:28;8.23;;;6.47;;
11893;SDS011;6006;49.696;8.662;2023-03-12T10:22:06;10.07;;;6.90;;
11893;SDS011;6006;49.696;8.662;2023-03-12T10:24:44;7.03;;;6.33;;
11893;SDS011;6006;49.696;8.662;2023-03-12T10:27:21;8.87;;;6.53;;
11893;SDS011;6006;49.696;8.662;2023-03-12T10:29:51;10.90;;;6.70;;
11893;SDS011;6006;49.696;8.662;2023-03-12T10:32:20;7.80;;;6.90;;
11893;SDS011;6006;49.696;8.662;2023-03-12T10:34:52;8.17;;;6.60;;
11893;SDS011;6006;49.696;8.662;2023-03-12T10:37:24;8.50;;;6.73;;
11893;SDS011;6006;49.696;8.662;2023-03-12T10:39:55;12.50;;;10.47;;
11893;SDS011;6006;49.696;8.662;2023-03-12T10:42:25;9.87;;;8.07;;
11893;SDS011;6006;49.696;8.662;2023-03-12T10:44:54;12.67;;;7.90;;
11893;SDS011;6006;49.696;8.662;2023-03-12T10:47:29;9.40;;;8.37;;
11893;SDS011;6006;49.696;8.662;2023-03-12T10:50:14;10.33;;;8.70;;
11893;SDS011;6006;49.696;8.662;2023-03-12T10:52:44;9.87;;;7.87;;
11893;SDS011;6006;49.696;8.662;2023-03-12T10:55:18;10.77;;;8.37;;
11893;SDS011;6006;49.696;8.662;2023-03-12T10:57:47;9.03;;;7.60;;
11893;SDS011;6006;49.696;8.662;2023-03-12T11:00:18;11.27;;;9.47;;
11893;SDS011;6006;49.696;8.662;2023-03-12T11:02:54;17.00;;;13.40;;
11893;SDS011;6006;49.696;8.662;2023-03-12T11:05:24;11.37;;;9.70;;
11893;SDS011;6006;49.696;8.662;2023-03-12T11:07:54;9.30;;;8.40;;
11893;SDS011;6006;49.696;8.662;2023-03-12T11:10:24;10.73;;;8.30;;
11893;SDS011;6006;49.696;8.662;2023-03-12T11:12:54;15.77;;;10.67;;
11893;SDS011;6006;49.696;8.662;2023-03-12T11:15:37;7.70;;;6.90;;
11893;SDS011;6006;49.696;8.662;2023-03-12T11:18:20;8.10;;;7.30;;
11893;SDS011;6006;49.696;8.662;2023-03-12T11:20:52;8.63;;;7.43;;
11893;SDS011;6006;49.696;8.662;2023-03-12T11:23:24;9.73;;;8.03;;
11893;SDS011;6006;49.696;8.662;2023-03-12T11:25:53;9.10;;;8.23;;
11893;SDS011;6006;49.696;8.662;2023-03-12T11:28:24;10.63;;;7.90;;
11893;SDS011;6006;49.696;8.662;2023-03-12T11:30:57;8.40;;;7.23;;
11893;SDS011;6006;49.696;8.662;2023-03-12T11:33:26;8.73;;;7.73;;
11893;SDS011;6006;49.696;8.662;2023-03-12T11:35:57;9.43;;;8.20;;
11893;SDS011;6006;49.696;8.662;2023-03-12T11:38:36;9.77;;;8.63;;
11893;SDS011;6006;49.696;8.662;2023-03-12T11:41:15;8.90;;;7.60;;
11893;SDS011;6006;49.696;8.662;2023-03-12T11:43:53;11.27;;;9.40;;
11893;SDS011;6006;49.696;8.662;2023-03-12T11:46:33;9.97;;;8.50;;
11893;SDS011;6006;49.696;8.662;2023-03-12T11:49:12;11.10;;;10.03;;
11893;SDS011;6006;49.696;8.662;2023-03-12T11:51:48;9.93;;;8.93;;
11893;SDS011;6006;49.696;8.662;2023-03-12T11:57:12;11.20;;;9.20;;
11893;SDS011;6006;49.696;8.662;2023-03-12T11:59:48;12.37;;;9.50;;
11893;SDS011;6006;49.696;8.662;2023-03-12T12:02:33;8.73;;;7.83;;
11893;SDS011;6006;49.696;8.662;2023-03-12T12:05:17;8.03;;;7.13;;
11893;SDS011;6006;49.696;8.662;2023-03-12T12:07:53;7.80;;;7.10;;
11893;SDS011;6006;49.696;8.662;2023-03-12T12:10:33;6.70;;;6.10;;
11893;SDS011;6006;49.696;8.662;2023-03-12T12:13:08;7.97;;;6.63;;
11893;SDS011;6006;49.696;8.662;2023-03-12T12:15:41;8.37;;;7.07;;
11893;SDS011;6006;49.696;8.662;2023-03-12T12:18:22;7.03;;;6.33;;
11893;SDS011;6006;49.696;8.662;2023-03-12T12:21:00;6.50;;;5.90;;
11893;SDS011;6006;49.696;8.662;2023-03-12T12:23:34;8.27;;;6.07;;
11893;SDS011;6006;49.696;8.662;2023-03-12T12:26:13;6.67;;;6.03;;
11893;SDS011;6006;49.696;8.662;2023-03-12T12:28:48;7.53;;;5.50;;
11893;SDS011;6006;49.696;8.662;2023-03-12T12:31:36;6.00;;;5.40;;
11893;SDS011;6006;49.696;8.662;2023-03-12T12:37:19;6.03;;;5.53;;
11893;SDS011;6006;49.696;8.662;2023-03-12T12:39:51;8.50;;;6.10;;
11893;SDS011;6006;49.696;8.662;2023-03-12T12:42:27;6.87;;;5.57;;
11893;SDS011;6006;49.696;8.662;2023-03-12T12:44:57;8.63;;;6.30;;
11893;SDS011;6006;49.696;8.662;2023-03-12T12:47:31;8.43;;;6.73;;
11893;SDS011;6006;49.696;8.662;2023-03-12T12:50:03;8.77;;;5.70;;
11893;SDS011;6006;49.696;8.662;2023-03-12T12:52:30;7.30;;;6.20;;
11893;SDS011;6006;49.696;8.662;2023-03-12T12:54:59;7.53;;;6.17;;
11893;SDS011;6006;49.696;8.662;2023-03-12T12:57:35;7.20;;;6.23;;
11893;SDS011;6006;49.696;8.662;2023-03-12T13:03:09;7.80;;;6.00;;
11893;SDS011;6006;49.696;8.662;2023-03-12T13:05:40;6.70;;;5.83;;
11893;SDS011;6006;49.696;8.662;2023-03-12T13:11:22;7.03;;;6.20;;
11893;SDS011;6006;49.696;8.662;2023-03-12T13:16:44;8.73;;;5.40;;
11893;SDS011;6006;49.696;8.662;2023-03-12T13:19:20;5.97;;;5.47;;
11893;SDS011;6006;49.696;8.662;2023-03-12T13:21:52;6.97;;;6.13;;
11893;SDS011;6006;49.696;8.662;2023-03-12T13:24:28;7.93;;;6.00;;
11893;SDS011;6006;49.696;8.662;2023-03-12T13:26:59;6.33;;;5.73;;
11893;SDS011;6006;49.696;8.662;2023-03-12T13:29:37;6.60;;;5.90;;
11893;SDS011;6006;49.696;8.662;2023-03-12T13:32:07;8.87;;;5.63;;
11893;SDS011;6006;49.696;8.662;2023-03-12T13:34:56;5.80;;;5.30;;
11893;SDS011;6006;49.696;8.662;2023-03-12T13:37:27;8.43;;;6.07;;
11893;SDS011;6006;49.696;8.662;2023-03-12T13:40:35;7.00;;;6.40;;
11893;SDS011;6006;49.696;8.662;2023-03-12T13:43:31;6.83;;;5.57;;
11893;SDS011;6006;49.696;8.662;2023-03-12T13:46:25;6.03;;;5.33;;
11893;SDS011;6006;49.696;8.662;2023-03-12T13:49:09;7.20;;;5.20;;
11893;SDS011;6006;49.696;8.662;2023-03-12T13:51:55;10.53;;;5.63;;
11893;SDS011;6006;49.696;8.662;2023-03-12T13:54:27;6.67;;;5.40;;
11893;SDS011;6006;49.696;8.662;2023-03-12T13:56:58;5.80;;;4.90;;
11893;SDS011;6006;49.696;8.662;2023-03-12T13:59:28;7.37;;;4.53;;
11893;SDS011;6006;49.696;8.662;2023-03-12T14:01:58;5.87;;;4.40;;
11893;SDS011;6006;49.696;8.662;2023-03-12T14:04:30;8.23;;;4.20;;
11893;SDS011;6006;49.696;8.662;2023-03-12T14:07:09;6.90;;;4.10;;
11893;SDS011;6006;49.696;8.662;2023-03-12T14:09:57;5.63;;;3.97;;
11893;SDS011;6006;49.696;8.662;2023-03-12T14:12:33;6.60;;;4.20;;
11893;SDS011;6006;49.696;8.662;2023-03-12T14:15:14;6.90;;;4.23;;
11893;SDS011;6006;49.696;8.662;2023-03-12T14:17:55;8.93;;;5.63;;
11893;SDS011;6006;49.696;8.662;2023-03-12T14:20:23;6.40;;;4.53;;
11893;SDS011;6006;49.696;8.662;2023-03-12T14:22:51;6.73;;;4.20;;
11893;SDS011;6006;49.696;8.662;2023-03-12T14:25:25;6.87;;;3.70;;
11893;SDS011;6006;49.696;8.662;2023-03-12T14:27:58;8.13;;;4.40;;
11893;SDS011;6006;49.696;8.662;2023-03-12T14:30:28;6.80;;;4.87;;
11893;SDS011;6006;49.696;8.662;2023-03-12T14:33:03;10.70;;;4.23;;
11893;SDS011;6006;49.696;8.662;2023-03-12T14:35:32;9.93;;;4.10;;
11893;SDS011;6006;49.696;8.662;2023-03-12T14:38:03;8.23;;;4.33;;
11893;SDS011;6006;49.696;8.662;2023-03-12T14:40:34;7.70;;;4.17;;
11893;SDS011;6006;49.696;8.662;2023-03-12T14:43:24;6.30;;;3.97;;
11893;SDS011;6006;49.696;8.662;2023-03-12T14:45:55;7.77;;;4.47;;
11893;SDS011;6006;49.696;8.662;2023-03-12T14:48:27;9.57;;;5.17;;
11893;SDS011;6006;49.696;8.662;2023-03-12T14:50:56;8.00;;;4.37;;
11893;SDS011;6006;49.696;8.662;2023-03-12T14:53:24;8.70;;;3.53;;
11893;SDS011;6006;49.696;8.662;2023-03-12T14:56:03;9.63;;;3.57;;
11893;SDS011;6006;49.696;8.662;2023-03-12T14:58:32;8.07;;;3.20;;
11893;SDS011;6006;49.696;8.662;2023-03-12T15:01:01;6.67;;;2.87;;
11893;SDS011;6006;49.696;8.662;2023-03-12T15:03:31;9.87;;;2.80;;
11893;SDS011;6006;49.696;8.662;2023-03-12T15:06:04;5.30;;;2.37;;
11893;SDS011;6006;49.696;8.662;2023-03-12T15:08:39;8.47;;;2.57;;
11893;SDS011;6006;49.696;8.662;2023-03-12T15:11:09;6.00;;;1.93;;
11893;SDS011;6006;49.696;8.662;2023-03-12T15:13:36;6.93;;;2.53;;
11893;SDS011;6006;49.696;8.662;2023-03-12T15:16:04;4.07;;;2.30;;
11893;SDS011;6006;49.696;8.662;2023-03-12T15:18:34;6.10;;;1.63;;
11893;SDS011;6006;49.696;8.662;2023-03-12T15:21:02;5.40;;;2.00;;
11893;SDS011;6006;49.696;8.662;2023-03-12T15:23:31;9.13;;;2.27;;
11893;SDS011;6006;49.696;8.662;2023-03-12T15:26:07;9.10;;;2.30;;
11893;SDS011;6006;49.696;8.662;2023-03-12T15:28:35;8.73;;;2.33;;
11893;SDS011;6006;49.696;8.662;2023-03-12T15:31:04;6.23;;;2.37;;
11893;SDS011;6006;49.696;8.662;2023-03-12T15:33:35;5.57;;;2.17;;